createdAt,value
2019-03-04T00:00:24.116Z,10.65
2019-03-04T00:01:24.103Z,10.81
2019-03-04T00:02:24.108Z,10.80
2019-03-04T00:03:24.083Z,10.91
2019-03-04T00:04:24.098Z,11.03
2019-03-04T00:05:24.095Z,11.12
2019-03-04T00:06:24.051Z,11.23
2019-03-04T00:07:24.054Z,11.26
2019-03-04T00:08:24.031Z,11.42
2019-03-04T00:09:24.020Z,11.46
2019-03-04T00:10:24.007Z,11.44
2019-03-04T00:11:23.999Z,11.64
2019-03-04T00:12:23.996Z,11.69
2019-03-04T00:13:23.975Z,11.81
2019-03-04T00:14:23.973Z,11.74
2019-03-04T00:15:23.953Z,11.84
2019-03-04T00:16:23.943Z,11.90
2019-03-04T00:17:23.948Z,11.93
2019-03-04T00:18:23.922Z,11.77
2019-03-04T00:19:23.910Z,11.87
2019-03-04T00:20:23.903Z,11.90
2019-03-04T00:21:23.908Z,11.94
2019-03-04T00:22:23.891Z,11.87
2019-03-04T00:23:23.881Z,11.85
2019-03-04T00:24:23.859Z,11.88
2019-03-04T00:25:23.853Z,11.96
2019-03-04T00:26:23.837Z,12.00
2019-03-04T00:27:23.840Z,12.03
2019-03-04T00:28:23.814Z,11.96
2019-03-04T00:29:23.806Z,11.88
2019-03-04T00:30:23.792Z,11.96
2019-03-04T00:31:23.785Z,11.97
2019-03-04T00:32:23.782Z,11.98
2019-03-04T00:33:23.761Z,11.97
2019-03-04T00:34:23.758Z,11.90
2019-03-04T00:35:23.739Z,11.90
2019-03-04T00:36:23.727Z,11.88
2019-03-04T00:37:23.743Z,11.96
2019-03-04T00:38:23.708Z,11.88
2019-03-04T00:39:23.696Z,11.97
2019-03-04T00:40:23.687Z,12.01
2019-03-04T00:41:23.677Z,11.93
2019-03-04T00:42:23.680Z,11.96
2019-03-04T00:43:23.654Z,11.82
2019-03-04T00:44:23.643Z,11.87
2019-03-04T00:45:23.633Z,11.94
2019-03-04T00:46:23.622Z,11.87
2019-03-04T00:47:23.619Z,11.84
2019-03-04T00:48:23.602Z,11.81
2019-03-04T00:49:23.589Z,11.82
2019-03-04T00:50:23.579Z,11.93
2019-03-04T00:51:23.566Z,11.78
2019-03-04T00:52:23.557Z,11.94
2019-03-04T00:53:23.549Z,11.85
2019-03-04T00:54:23.538Z,11.78
2019-03-04T00:55:23.526Z,11.90
2019-03-04T00:56:23.513Z,11.84
2019-03-04T00:57:23.502Z,11.79
2019-03-04T00:58:23.494Z,11.88
2019-03-04T00:59:23.480Z,11.85
2019-03-04T01:00:23.478Z,11.87
2019-03-04T01:01:23.461Z,11.85
2019-03-04T01:02:23.449Z,11.87
2019-03-04T01:03:23.449Z,11.88
2019-03-04T01:04:23.436Z,11.90
2019-03-04T01:05:23.424Z,11.93
2019-03-04T01:06:23.408Z,11.90
2019-03-04T01:07:23.397Z,11.87
2019-03-04T01:08:23.387Z,11.93
2019-03-04T01:09:23.373Z,11.87
2019-03-04T01:10:23.363Z,12.04
2019-03-04T01:11:23.354Z,11.87
2019-03-04T01:12:23.340Z,12.01
2019-03-04T01:13:23.339Z,11.87
2019-03-04T01:14:23.319Z,12.00
2019-03-04T01:15:23.309Z,11.96
2019-03-04T01:16:23.296Z,11.85
2019-03-04T01:17:23.286Z,11.82
2019-03-04T01:18:23.287Z,11.78
2019-03-04T01:19:23.268Z,11.84
2019-03-04T01:20:23.254Z,11.75
2019-03-04T01:21:23.243Z,11.72
2019-03-04T01:22:23.233Z,11.70
2019-03-04T01:23:23.240Z,11.70
2019-03-04T01:24:23.215Z,11.72
2019-03-04T01:25:23.199Z,11.69
2019-03-04T01:26:23.189Z,11.66
2019-03-04T01:27:23.180Z,11.56
2019-03-04T01:28:23.190Z,11.53
2019-03-04T01:29:23.159Z,11.51
2019-03-04T01:30:23.148Z,11.54
2019-03-04T01:31:23.137Z,11.59
2019-03-04T01:32:23.124Z,11.53
2019-03-04T01:33:23.115Z,11.51
2019-03-04T01:34:23.119Z,11.56
2019-03-04T01:35:23.093Z,11.51
2019-03-04T01:36:23.081Z,11.56
2019-03-04T01:37:23.072Z,11.45
2019-03-04T01:38:23.060Z,11.49
2019-03-04T01:39:23.061Z,11.46
2019-03-04T01:40:23.040Z,11.59
2019-03-04T01:41:23.031Z,11.51
2019-03-04T01:42:23.016Z,11.49
2019-03-04T01:43:23.017Z,11.62
2019-03-04T01:44:23.012Z,11.62
2019-03-04T01:45:22.984Z,11.62
2019-03-04T01:46:22.976Z,11.62
2019-03-04T01:47:22.971Z,11.69
2019-03-04T01:48:22.954Z,11.62
2019-03-04T01:49:22.961Z,11.66
2019-03-04T01:50:22.930Z,11.66
2019-03-04T01:51:22.920Z,11.70
2019-03-04T01:52:22.911Z,11.66
2019-03-04T01:53:22.901Z,11.70
2019-03-04T01:54:22.899Z,11.70
2019-03-04T01:55:22.877Z,11.75
2019-03-04T01:56:22.866Z,11.75
2019-03-04T01:57:22.856Z,11.75
2019-03-04T01:58:22.844Z,11.72
2019-03-04T01:59:22.846Z,11.82
2019-03-04T02:00:22.823Z,11.82
2019-03-04T02:01:22.814Z,11.70
2019-03-04T02:02:22.801Z,11.67
2019-03-04T02:03:22.791Z,11.66
2019-03-04T02:04:22.793Z,11.75
2019-03-04T02:05:22.775Z,11.70
2019-03-04T02:06:22.760Z,11.75
2019-03-04T02:07:22.749Z,11.66
2019-03-04T02:08:22.736Z,11.75
2019-03-04T02:09:22.738Z,11.78
2019-03-04T02:10:22.717Z,11.70
2019-03-04T02:11:22.708Z,11.77
2019-03-04T02:12:22.693Z,11.72
2019-03-04T02:13:22.681Z,11.74
2019-03-04T02:14:22.685Z,11.72
2019-03-04T02:15:22.660Z,11.75
2019-03-04T02:16:22.652Z,11.75
2019-03-04T02:17:22.642Z,11.77
2019-03-04T02:18:22.642Z,11.69
2019-03-04T02:19:22.627Z,11.75
2019-03-04T02:20:22.607Z,11.75
2019-03-04T02:21:22.595Z,11.75
2019-03-04T02:22:22.587Z,11.74
2019-03-04T02:23:22.577Z,11.72
2019-03-04T02:24:22.642Z,11.78
2019-03-04T02:25:22.565Z,11.79
2019-03-04T02:26:22.545Z,11.78
2019-03-04T02:27:22.534Z,11.84
2019-03-04T02:28:22.524Z,11.70
2019-03-04T02:29:22.689Z,11.84
2019-03-04T02:30:22.509Z,11.81
2019-03-04T02:31:22.505Z,11.88
2019-03-04T02:32:22.477Z,11.88
2019-03-04T02:33:22.467Z,11.87
2019-03-04T02:34:22.455Z,11.81
2019-03-04T02:35:22.455Z,11.87
2019-03-04T02:36:22.441Z,11.94
2019-03-04T02:37:22.425Z,11.90
2019-03-04T02:38:22.423Z,11.88
2019-03-04T02:39:22.406Z,11.87
2019-03-04T02:40:22.402Z,11.98
2019-03-04T02:41:22.380Z,11.87
2019-03-04T02:42:22.371Z,11.93
2019-03-04T02:43:22.358Z,11.93
2019-03-04T02:44:22.348Z,11.87
2019-03-04T02:45:22.355Z,11.79
2019-03-04T02:46:22.326Z,11.82
2019-03-04T02:47:22.314Z,11.87
2019-03-04T02:48:22.307Z,11.87
2019-03-04T02:49:22.296Z,11.79
2019-03-04T02:50:22.316Z,11.82
2019-03-04T02:51:22.273Z,11.77
2019-03-04T02:52:22.265Z,11.75
2019-03-04T02:53:22.250Z,11.70
2019-03-04T02:54:22.239Z,11.70
2019-03-04T02:55:22.246Z,11.66
2019-03-04T02:56:22.219Z,11.69
2019-03-04T02:57:22.206Z,11.64
2019-03-04T02:58:22.198Z,11.66
2019-03-04T02:59:22.192Z,11.62
2019-03-04T03:00:22.179Z,11.59
2019-03-04T03:01:22.164Z,11.51
2019-03-04T03:02:22.153Z,11.48
2019-03-04T03:03:22.143Z,11.46
2019-03-04T03:04:22.139Z,11.42
2019-03-04T03:05:22.130Z,11.44
2019-03-04T03:06:22.119Z,11.42
2019-03-04T03:07:22.102Z,11.35
2019-03-04T03:08:22.089Z,11.26
2019-03-04T03:09:22.078Z,11.20
2019-03-04T03:10:22.073Z,11.31
2019-03-04T03:11:22.057Z,11.16
2019-03-04T03:12:22.046Z,11.12
2019-03-04T03:13:22.036Z,11.17
2019-03-04T03:14:22.026Z,11.13
2019-03-04T03:15:22.031Z,11.16
2019-03-04T03:16:22.017Z,11.06
2019-03-04T03:17:21.993Z,11.06
2019-03-04T03:18:21.981Z,11.16
2019-03-04T03:19:21.970Z,11.11
2019-03-04T03:20:21.966Z,11.17
2019-03-04T03:21:21.953Z,11.09
2019-03-04T03:22:21.939Z,11.12
2019-03-04T03:23:21.929Z,11.06
2019-03-04T03:24:21.915Z,11.06
2019-03-04T03:25:21.916Z,11.05
2019-03-04T03:26:21.894Z,11.02
2019-03-04T03:27:21.888Z,10.99
2019-03-04T03:28:21.878Z,11.08
2019-03-04T03:29:21.861Z,10.94
2019-03-04T03:30:21.859Z,10.91
2019-03-04T03:31:21.844Z,10.86
2019-03-04T03:32:21.835Z,10.80
2019-03-04T03:33:21.855Z,10.76
2019-03-04T03:34:21.817Z,10.75
2019-03-04T03:35:21.819Z,10.73
2019-03-04T03:36:21.789Z,10.70
2019-03-04T03:37:21.777Z,10.69
2019-03-04T03:38:21.765Z,10.69
2019-03-04T03:39:21.755Z,10.62
2019-03-04T03:40:21.746Z,10.63
2019-03-04T03:41:21.743Z,10.66
2019-03-04T03:42:21.723Z,10.52
2019-03-04T03:43:21.712Z,10.60
2019-03-04T03:44:21.702Z,10.62
2019-03-04T03:45:21.692Z,10.68
2019-03-04T03:46:21.709Z,10.63
2019-03-04T03:47:21.669Z,10.63
2019-03-04T03:48:21.665Z,10.62
2019-03-04T03:49:21.650Z,10.68
2019-03-04T03:50:21.639Z,10.68
2019-03-04T03:51:21.641Z,10.73
2019-03-04T03:52:21.616Z,10.78
2019-03-04T03:53:21.612Z,10.72
2019-03-04T03:54:21.596Z,10.75
2019-03-04T03:55:21.581Z,10.76
2019-03-04T03:56:21.607Z,10.80
2019-03-04T03:57:21.562Z,10.72
2019-03-04T03:58:21.552Z,10.80
2019-03-04T03:59:21.552Z,10.76
2019-03-04T04:00:21.543Z,10.90
2019-03-04T04:01:21.533Z,10.83
2019-03-04T04:02:21.530Z,10.80
2019-03-04T04:03:21.506Z,10.76
2019-03-04T04:04:21.510Z,10.76
2019-03-04T04:05:21.479Z,10.76
2019-03-04T04:06:21.477Z,10.75
2019-03-04T04:07:21.453Z,10.69
2019-03-04T04:08:21.446Z,10.75
2019-03-04T04:09:21.435Z,10.76
2019-03-04T04:10:21.456Z,10.76
2019-03-04T04:11:21.423Z,10.75
2019-03-04T04:12:21.432Z,10.73
2019-03-04T04:13:21.390Z,10.72
2019-03-04T04:14:21.382Z,10.72
2019-03-04T04:15:21.372Z,10.72
2019-03-04T04:16:21.371Z,10.75
2019-03-04T04:17:21.346Z,10.72
2019-03-04T04:18:21.337Z,10.75
2019-03-04T04:19:21.329Z,10.73
2019-03-04T04:20:21.315Z,10.70
2019-03-04T04:21:21.329Z,10.69
2019-03-04T04:22:21.296Z,10.75
2019-03-04T04:23:21.285Z,10.68
2019-03-04T04:24:21.276Z,10.72
2019-03-04T04:25:21.267Z,10.72
2019-03-04T04:26:21.250Z,10.70
2019-03-04T04:27:21.254Z,10.75
2019-03-04T04:28:21.233Z,10.69
2019-03-04T04:29:21.237Z,10.73
2019-03-04T04:30:21.233Z,10.75
2019-03-04T04:31:21.197Z,10.70
2019-03-04T04:32:21.203Z,10.75
2019-03-04T04:33:21.180Z,10.69
2019-03-04T04:34:21.173Z,10.66
2019-03-04T04:35:21.157Z,10.60
2019-03-04T04:36:21.149Z,10.62
2019-03-04T04:37:21.145Z,10.66
2019-03-04T04:38:21.124Z,10.68
2019-03-04T04:39:21.120Z,10.63
2019-03-04T04:40:21.103Z,10.62
2019-03-04T04:41:21.091Z,10.62
2019-03-04T04:42:21.095Z,10.54
2019-03-04T04:43:21.074Z,10.51
2019-03-04T04:44:21.059Z,10.47
2019-03-04T04:45:21.047Z,10.42
2019-03-04T04:46:21.050Z,10.47
2019-03-04T04:47:21.042Z,10.46
2019-03-04T04:48:21.017Z,10.35
2019-03-04T04:49:21.036Z,10.31
2019-03-04T04:50:20.994Z,10.36
2019-03-04T04:51:31.732Z,10.38
2019-03-04T04:52:23.219Z,10.38
2019-03-04T04:53:20.962Z,10.31
2019-03-04T04:54:20.953Z,10.44
2019-03-04T04:55:20.943Z,10.44
2019-03-04T04:56:20.931Z,10.25
2019-03-04T04:57:20.933Z,10.28
2019-03-04T04:58:20.912Z,10.32
2019-03-04T04:59:20.899Z,10.36
2019-03-04T05:00:20.890Z,10.31
2019-03-04T05:01:20.884Z,10.39
2019-03-04T05:02:20.879Z,10.36
2019-03-04T05:03:20.863Z,10.36
2019-03-04T05:04:20.846Z,10.35
2019-03-04T05:05:20.844Z,10.36
2019-03-04T05:06:20.823Z,10.34
2019-03-04T05:07:20.828Z,10.34
2019-03-04T05:08:20.806Z,10.28
2019-03-04T05:09:20.795Z,10.29
2019-03-04T05:10:20.793Z,10.29
2019-03-04T05:11:20.778Z,10.29
2019-03-04T05:12:20.777Z,10.25
2019-03-04T05:13:20.776Z,10.26
2019-03-04T05:14:20.740Z,10.29
2019-03-04T05:15:20.734Z,10.29
2019-03-04T05:16:20.719Z,10.32
2019-03-04T05:17:20.733Z,10.35
2019-03-04T05:18:20.698Z,10.31
2019-03-04T05:19:20.696Z,10.28
2019-03-04T05:20:20.674Z,10.35
2019-03-04T05:21:20.667Z,10.32
2019-03-04T05:22:20.658Z,10.24
2019-03-04T05:23:20.647Z,10.29
2019-03-04T05:24:20.632Z,10.32
2019-03-04T05:25:20.624Z,10.29
2019-03-04T05:26:20.617Z,10.26
2019-03-04T05:27:20.605Z,10.25
2019-03-04T05:28:20.624Z,10.20
2019-03-04T05:29:20.584Z,10.22
2019-03-04T05:30:20.568Z,10.26
2019-03-04T05:31:20.559Z,10.17
2019-03-04T05:32:20.550Z,10.10
2019-03-04T05:33:20.545Z,10.13
2019-03-04T05:34:20.579Z,10.11
2019-03-04T05:35:20.520Z,10.09
2019-03-04T05:36:20.513Z,10.11
2019-03-04T05:37:20.534Z,9.99
2019-03-04T05:38:20.489Z,9.96
2019-03-04T05:39:20.474Z,9.95
2019-03-04T05:40:20.462Z,9.92
2019-03-04T05:41:20.454Z,9.88
2019-03-04T05:42:20.444Z,9.83
2019-03-04T05:43:20.449Z,9.77
2019-03-04T05:44:20.477Z,9.80
2019-03-04T05:45:20.415Z,9.81
2019-03-04T05:46:20.405Z,9.74
2019-03-04T05:47:20.387Z,9.80
2019-03-04T05:48:20.385Z,9.77
2019-03-04T05:49:20.373Z,9.78
2019-03-04T05:50:20.359Z,9.75
2019-03-04T05:51:20.344Z,9.80
2019-03-04T05:52:20.338Z,9.77
2019-03-04T05:53:20.326Z,9.74
2019-03-04T05:54:20.312Z,9.73
2019-03-04T05:55:20.316Z,9.81
2019-03-04T05:56:20.295Z,9.80
2019-03-04T05:57:20.280Z,9.75
2019-03-04T05:58:20.278Z,9.86
2019-03-04T05:59:20.334Z,9.91
2019-03-04T06:00:20.251Z,9.95
2019-03-04T06:01:20.239Z,9.95
2019-03-04T06:02:20.235Z,9.95
2019-03-04T06:03:20.229Z,9.95
2019-03-04T06:04:20.213Z,9.95
2019-03-04T06:05:20.196Z,9.98
2019-03-04T06:06:20.186Z,9.98
2019-03-04T06:07:20.174Z,9.99
2019-03-04T06:08:20.175Z,10.02
2019-03-04T06:09:20.155Z,10.01
2019-03-04T06:10:20.143Z,10.09
2019-03-04T06:11:20.131Z,10.06
2019-03-04T06:12:20.124Z,10.09
2019-03-04T06:13:20.118Z,9.99
2019-03-04T06:14:20.110Z,10.10
2019-03-04T06:15:20.104Z,10.07
2019-03-04T06:16:20.078Z,9.92
2019-03-04T06:17:20.069Z,9.96
2019-03-04T06:18:20.062Z,9.92
2019-03-04T06:19:20.046Z,9.98
2019-03-04T06:20:20.037Z,9.96
2019-03-04T06:21:20.025Z,9.95
2019-03-04T06:22:20.013Z,9.95
2019-03-04T06:23:20.007Z,9.99
2019-03-04T06:24:19.992Z,10.01
2019-03-04T06:25:19.985Z,10.01
2019-03-04T06:26:19.971Z,10.02
2019-03-04T06:27:19.967Z,9.96
2019-03-04T06:28:19.967Z,9.95
2019-03-04T06:29:19.942Z,9.95
2019-03-04T06:30:19.929Z,9.96
2019-03-04T06:31:19.929Z,9.96
2019-03-04T06:32:19.907Z,9.95
2019-03-04T06:33:19.901Z,9.96
2019-03-04T06:34:19.886Z,9.86
2019-03-04T06:35:19.875Z,9.89
2019-03-04T06:36:19.865Z,9.88
2019-03-04T06:37:19.862Z,9.95
2019-03-04T06:38:19.870Z,9.91
2019-03-04T06:39:19.832Z,9.98
2019-03-04T06:40:19.821Z,9.96
2019-03-04T06:41:19.811Z,9.89
2019-03-04T06:42:19.809Z,9.93
2019-03-04T06:43:19.809Z,9.93
2019-03-04T06:44:19.787Z,9.91
2019-03-04T06:45:19.768Z,9.99
2019-03-04T06:46:19.757Z,10.10
2019-03-04T06:47:19.747Z,10.07
2019-03-04T06:48:19.755Z,10.10
2019-03-04T06:49:19.727Z,10.22
2019-03-04T06:50:19.734Z,10.17
2019-03-04T06:51:19.705Z,10.18
2019-03-04T06:52:19.709Z,10.31
2019-03-04T06:53:19.685Z,10.44
2019-03-04T06:54:19.692Z,10.35
2019-03-04T06:55:19.662Z,10.42
2019-03-04T06:56:19.670Z,10.42
2019-03-04T06:57:28.266Z,10.43
2019-03-04T06:58:20.649Z,10.52
2019-03-04T06:59:19.618Z,10.57
2019-03-04T07:00:19.611Z,10.55
2019-03-04T07:01:19.612Z,10.60
2019-03-04T07:02:19.593Z,10.73
2019-03-04T07:03:19.575Z,10.78
2019-03-04T07:04:19.576Z,10.81
2019-03-04T07:05:19.554Z,10.94
2019-03-04T07:06:19.543Z,10.99
2019-03-04T07:07:19.534Z,10.91
2019-03-04T07:08:19.522Z,10.95
2019-03-04T07:09:19.524Z,10.94
2019-03-04T07:10:19.570Z,11.01
2019-03-04T07:11:19.493Z,11.05
2019-03-04T07:12:19.482Z,11.09
2019-03-04T07:13:19.469Z,11.17
2019-03-04T07:14:19.473Z,11.12
2019-03-04T07:15:19.452Z,11.12
2019-03-04T07:16:19.436Z,11.17
2019-03-04T07:17:19.429Z,11.17
2019-03-04T07:18:19.421Z,11.27
2019-03-04T07:19:19.434Z,11.42
2019-03-04T07:20:19.409Z,11.57
2019-03-04T07:21:19.384Z,11.62
2019-03-04T07:22:19.377Z,11.75
2019-03-04T07:23:19.363Z,11.84
2019-03-04T07:24:19.364Z,11.98
2019-03-04T07:25:19.343Z,11.98
2019-03-04T07:26:19.329Z,12.07
2019-03-04T07:27:19.325Z,12.19
2019-03-04T07:28:19.317Z,12.21
2019-03-04T07:29:19.336Z,12.29
2019-03-04T07:30:19.287Z,12.33
2019-03-04T07:31:19.280Z,12.34
2019-03-04T07:32:19.265Z,12.37
2019-03-04T07:33:19.255Z,12.34
2019-03-04T07:34:19.254Z,12.49
2019-03-04T07:35:19.240Z,12.51
2019-03-04T07:36:19.239Z,12.63
2019-03-04T07:37:19.212Z,12.67
2019-03-04T07:38:19.200Z,12.71
2019-03-04T07:39:19.200Z,12.70
2019-03-04T07:40:19.181Z,12.71
2019-03-04T07:41:19.170Z,12.76
2019-03-04T07:42:19.159Z,12.89
2019-03-04T07:43:19.147Z,12.98
2019-03-04T07:44:19.151Z,13.06
2019-03-04T07:45:19.127Z,13.09
2019-03-04T07:46:19.118Z,13.12
2019-03-04T07:47:19.110Z,13.14
2019-03-04T07:48:19.091Z,13.32
2019-03-04T07:49:19.096Z,13.39
2019-03-04T07:50:19.076Z,13.41
2019-03-04T07:51:19.064Z,13.44
2019-03-04T07:52:19.058Z,13.59
2019-03-04T07:53:19.247Z,13.61
2019-03-04T07:54:19.089Z,13.51
2019-03-04T07:55:19.019Z,13.62
2019-03-04T07:56:19.007Z,13.61
2019-03-04T07:57:18.999Z,13.59
2019-03-04T07:58:18.985Z,13.69
2019-03-04T07:59:18.986Z,13.68
2019-03-04T08:00:18.963Z,13.71
2019-03-04T08:01:18.955Z,13.66
2019-03-04T08:02:18.942Z,13.76
2019-03-04T08:03:18.966Z,13.79
2019-03-04T08:04:18.945Z,13.73
2019-03-04T08:05:18.914Z,13.75
2019-03-04T08:06:18.899Z,13.68
2019-03-04T08:07:18.913Z,13.69
2019-03-04T08:08:18.882Z,13.68
2019-03-04T08:09:18.869Z,13.75
2019-03-04T08:10:18.871Z,13.73
2019-03-04T08:11:18.845Z,13.66
2019-03-04T08:12:18.838Z,13.80
2019-03-04T08:13:18.828Z,13.69
2019-03-04T08:14:18.815Z,13.75
2019-03-04T08:15:18.816Z,13.63
2019-03-04T08:16:18.791Z,13.66
2019-03-04T08:17:18.782Z,13.59
2019-03-04T08:18:18.770Z,13.63
2019-03-04T08:19:18.760Z,13.65
2019-03-04T08:20:18.760Z,13.61
2019-03-04T08:21:18.744Z,13.28
2019-03-04T08:22:18.732Z,13.10
2019-03-04T08:23:18.717Z,12.88
2019-03-04T08:24:18.714Z,12.62
2019-03-04T08:25:18.706Z,12.44
2019-03-04T08:26:18.686Z,12.21
2019-03-04T08:27:18.677Z,12.04
2019-03-04T08:28:18.662Z,11.77
2019-03-04T08:29:18.653Z,11.75
2019-03-04T08:30:18.654Z,11.63
2019-03-04T08:31:18.631Z,11.60
2019-03-04T08:32:18.619Z,11.62
2019-03-04T08:33:18.614Z,11.57
2019-03-04T08:34:18.600Z,11.56
2019-03-04T08:35:18.601Z,11.46
2019-03-04T08:36:18.580Z,11.51
2019-03-04T08:37:18.567Z,11.51
2019-03-04T08:38:18.557Z,11.33
2019-03-04T08:39:18.545Z,11.27
2019-03-04T08:40:18.546Z,11.23
2019-03-04T08:41:18.554Z,10.98
2019-03-04T08:42:18.513Z,10.88
2019-03-04T08:43:18.504Z,10.60
2019-03-04T08:44:18.494Z,10.31
2019-03-04T08:45:18.493Z,10.22
2019-03-04T08:46:18.470Z,10.06
2019-03-04T08:47:18.458Z,10.02
2019-03-04T08:48:18.455Z,9.86
2019-03-04T08:49:18.437Z,9.86
2019-03-04T08:50:18.445Z,9.86
2019-03-04T08:51:18.415Z,9.78
2019-03-04T08:52:18.414Z,9.73
2019-03-04T08:53:18.408Z,9.80
2019-03-04T08:54:18.385Z,9.80
2019-03-04T08:55:18.385Z,9.77
2019-03-04T08:56:18.368Z,9.81
2019-03-04T08:57:18.399Z,9.80
2019-03-04T08:58:18.347Z,9.88
2019-03-04T08:59:18.331Z,9.88
2019-03-04T09:00:18.336Z,9.77
2019-03-04T09:01:18.318Z,9.78
2019-03-04T09:02:18.305Z,9.89
2019-03-04T09:03:18.289Z,9.95
2019-03-04T09:04:18.305Z,10.14
2019-03-04T09:05:18.273Z,10.13
2019-03-04T09:06:18.263Z,10.17
2019-03-04T09:07:18.252Z,10.25
2019-03-04T09:08:18.255Z,10.32
2019-03-04T09:09:18.247Z,10.28
2019-03-04T09:10:18.237Z,10.39
2019-03-04T09:11:18.207Z,10.42
2019-03-04T09:12:18.193Z,10.44
2019-03-04T09:13:18.190Z,10.52
2019-03-04T09:14:18.172Z,10.68
2019-03-04T09:15:18.160Z,10.72
2019-03-04T09:16:18.156Z,10.90
2019-03-04T09:17:18.237Z,10.91
2019-03-04T09:18:18.128Z,10.86
2019-03-04T09:19:18.130Z,10.94
2019-03-04T09:20:18.113Z,10.90
2019-03-04T09:21:18.104Z,10.88
2019-03-04T09:22:18.085Z,10.88
2019-03-04T09:23:18.081Z,10.88
2019-03-04T09:24:18.074Z,10.83
2019-03-04T09:25:18.060Z,10.86
2019-03-04T09:26:18.047Z,10.87
2019-03-04T09:27:18.033Z,10.83
2019-03-04T09:28:18.021Z,10.76
2019-03-04T09:29:18.018Z,10.80
2019-03-04T09:30:18.003Z,10.84
2019-03-04T09:31:17.996Z,10.94
2019-03-04T09:32:17.979Z,10.91
2019-03-04T09:33:17.969Z,10.91
2019-03-04T09:34:17.956Z,10.99
2019-03-04T09:35:17.950Z,11.01
2019-03-04T09:36:17.954Z,11.05
2019-03-04T09:37:17.930Z,10.98
2019-03-04T09:38:17.920Z,11.03
2019-03-04T09:39:17.903Z,11.06
2019-03-04T09:40:17.893Z,11.12
2019-03-04T09:41:17.887Z,11.23
2019-03-04T09:42:17.873Z,11.24
2019-03-04T09:43:17.865Z,11.13
2019-03-04T09:44:17.856Z,11.24
2019-03-04T09:45:17.880Z,11.24
2019-03-04T09:46:17.841Z,11.26
2019-03-04T09:47:17.818Z,11.31
2019-03-04T09:48:17.814Z,11.39
2019-03-04T09:49:17.797Z,11.41
2019-03-04T09:50:17.790Z,11.46
2019-03-04T09:51:24.313Z,11.48
2019-03-04T09:52:18.768Z,11.44
2019-03-04T09:53:17.754Z,11.62
2019-03-04T09:54:17.743Z,11.60
2019-03-04T09:55:17.732Z,11.63
2019-03-04T09:56:17.738Z,11.69
2019-03-04T09:57:17.715Z,11.78
2019-03-04T09:58:17.714Z,11.78
2019-03-04T09:59:17.693Z,11.84
2019-03-04T10:00:17.678Z,11.72
2019-03-04T10:01:17.699Z,11.75
2019-03-04T10:02:17.657Z,11.84
2019-03-04T10:03:17.647Z,11.88
2019-03-04T10:04:17.638Z,11.93
2019-03-04T10:05:17.629Z,12.04
2019-03-04T10:06:17.619Z,11.98
2019-03-04T10:07:17.606Z,11.97
2019-03-04T10:08:17.595Z,11.96
2019-03-04T10:09:17.581Z,11.96
2019-03-04T10:10:17.573Z,11.94
2019-03-04T10:11:17.563Z,12.00
2019-03-04T10:12:17.566Z,11.90
2019-03-04T10:13:17.539Z,11.88
2019-03-04T10:14:17.527Z,11.78
2019-03-04T10:15:17.520Z,11.84
2019-03-04T10:16:18.983Z,11.88
2019-03-04T10:17:17.510Z,11.94
2019-03-04T10:18:17.488Z,11.81
2019-03-04T10:19:17.476Z,11.84
2019-03-04T10:20:17.463Z,11.87
2019-03-04T10:21:17.458Z,11.90
2019-03-04T10:22:17.445Z,11.78
2019-03-04T10:23:17.431Z,11.79
2019-03-04T10:24:17.427Z,11.84
2019-03-04T10:25:17.409Z,11.75
2019-03-04T10:26:22.677Z,11.79
2019-03-04T10:27:18.399Z,11.87
2019-03-04T10:28:17.376Z,11.93
2019-03-04T10:29:17.377Z,11.82
2019-03-04T10:30:17.357Z,11.77
2019-03-04T10:31:17.346Z,11.90
2019-03-04T10:32:17.352Z,11.88
2019-03-04T10:33:17.324Z,11.74
2019-03-04T10:34:17.313Z,11.82
2019-03-04T10:35:17.304Z,11.88
2019-03-04T10:36:17.294Z,11.98
2019-03-04T10:37:17.292Z,11.87
2019-03-04T10:38:22.526Z,11.88
2019-03-04T10:39:22.511Z,11.88
2019-03-04T10:40:17.276Z,11.88
2019-03-04T10:41:17.237Z,11.81
2019-03-04T10:42:17.242Z,11.77
2019-03-04T10:43:17.268Z,11.72
2019-03-04T10:44:17.206Z,11.66
2019-03-04T10:45:18.306Z,11.64
2019-03-04T10:46:17.184Z,11.60
2019-03-04T10:47:17.186Z,11.63
2019-03-04T10:48:17.177Z,11.63
2019-03-04T10:49:17.152Z,11.54
2019-03-04T10:50:17.139Z,11.60
2019-03-04T10:51:18.741Z,11.56
2019-03-04T10:52:17.130Z,11.67
2019-03-04T10:53:17.108Z,11.60
2019-03-04T10:54:17.100Z,11.57
2019-03-04T10:55:17.087Z,11.51
2019-03-04T10:56:17.077Z,11.49
2019-03-04T10:57:17.086Z,11.44
2019-03-04T10:58:17.054Z,11.44
2019-03-04T10:59:17.044Z,11.33
2019-03-04T11:00:17.035Z,11.41
2019-03-04T11:01:17.024Z,11.36
2019-03-04T11:02:17.011Z,11.36
2019-03-04T11:03:17.023Z,11.44
2019-03-04T11:04:16.990Z,11.36
2019-03-04T11:05:16.980Z,11.35
2019-03-04T11:06:16.970Z,11.36
2019-03-04T11:07:16.960Z,11.36
2019-03-04T11:08:16.951Z,11.35
2019-03-04T11:09:16.936Z,11.30
2019-03-04T11:10:16.923Z,11.27
2019-03-04T11:11:16.916Z,11.35
2019-03-04T11:12:16.902Z,11.30
2019-03-04T11:13:16.900Z,11.31
2019-03-04T11:14:16.889Z,11.23
2019-03-04T11:15:16.878Z,11.26
2019-03-04T11:16:16.861Z,11.20
2019-03-04T11:17:16.858Z,11.21
2019-03-04T11:18:16.853Z,11.23
2019-03-04T11:19:16.840Z,11.30
2019-03-04T11:20:16.819Z,11.44
2019-03-04T11:21:16.818Z,11.33
2019-03-04T11:22:16.801Z,11.30
2019-03-04T11:23:16.815Z,11.38
2019-03-04T11:24:16.773Z,11.36
2019-03-04T11:25:16.791Z,11.38
2019-03-04T11:26:16.757Z,11.36
2019-03-04T11:27:16.745Z,11.27
2019-03-04T11:28:16.766Z,11.27
2019-03-04T11:29:16.721Z,11.20
2019-03-04T11:30:16.708Z,11.23
2019-03-04T11:31:16.699Z,11.26
2019-03-04T11:32:16.687Z,11.13
2019-03-04T11:33:16.691Z,11.12
2019-03-04T11:34:16.664Z,11.16
2019-03-04T11:35:16.662Z,11.16
2019-03-04T11:36:16.646Z,11.17
2019-03-04T11:37:16.633Z,11.02
2019-03-04T11:38:16.634Z,11.13
2019-03-04T11:39:16.616Z,11.09
2019-03-04T11:40:16.624Z,11.16
2019-03-04T11:41:16.595Z,11.23
2019-03-04T11:42:16.580Z,11.12
2019-03-04T11:43:16.594Z,11.16
2019-03-04T11:44:16.559Z,11.27
2019-03-04T11:45:16.549Z,11.35
2019-03-04T11:46:16.536Z,11.30
2019-03-04T11:47:16.525Z,11.28
2019-03-04T11:48:16.517Z,11.26
2019-03-04T11:49:16.521Z,11.31
2019-03-04T11:50:16.494Z,11.33
2019-03-04T11:51:16.484Z,11.36
2019-03-04T11:52:16.475Z,11.33
2019-03-04T11:53:16.471Z,11.44
2019-03-04T11:54:16.466Z,11.39
2019-03-04T11:55:16.445Z,11.35
2019-03-04T11:56:16.446Z,11.48
2019-03-04T11:57:16.419Z,11.36
2019-03-04T11:58:16.406Z,11.45
2019-03-04T11:59:16.413Z,11.48
2019-03-04T12:00:16.385Z,11.38
2019-03-04T12:01:16.376Z,11.41
2019-03-04T12:02:16.364Z,11.38
2019-03-04T12:03:16.354Z,11.36
2019-03-04T12:04:16.363Z,11.36
2019-03-04T12:05:16.332Z,11.33
2019-03-04T12:06:16.321Z,11.30
2019-03-04T12:07:16.314Z,11.28
2019-03-04T12:08:16.312Z,11.35
2019-03-04T12:09:16.301Z,11.30
2019-03-04T12:10:16.280Z,11.36
2019-03-04T12:11:16.272Z,11.33
2019-03-04T12:12:16.261Z,11.24
2019-03-04T12:13:16.244Z,11.30
2019-03-04T12:14:16.250Z,11.30
2019-03-04T12:15:16.223Z,11.26
2019-03-04T12:16:16.216Z,11.21
2019-03-04T12:17:16.204Z,11.23
2019-03-04T12:18:16.196Z,11.30
2019-03-04T12:19:16.194Z,11.24
2019-03-04T12:20:16.169Z,11.30
2019-03-04T12:21:16.159Z,11.31
2019-03-04T12:22:16.147Z,11.20
2019-03-04T12:23:16.137Z,11.17
2019-03-04T12:24:16.138Z,11.26
2019-03-04T12:25:16.117Z,11.21
2019-03-04T12:26:18.391Z,11.17
2019-03-04T12:27:16.093Z,11.16
2019-03-04T12:28:16.086Z,11.16
2019-03-04T12:29:16.089Z,11.11
2019-03-04T12:30:16.062Z,11.13
2019-03-04T12:31:16.050Z,11.16
2019-03-04T12:32:16.058Z,11.11
2019-03-04T12:33:16.028Z,11.13
2019-03-04T12:34:24.448Z,11.26
2019-03-04T12:35:17.009Z,11.11
2019-03-04T12:36:16.042Z,11.27
2019-03-04T12:37:15.986Z,11.26
2019-03-04T12:38:15.974Z,11.31
2019-03-04T12:39:15.985Z,11.42
2019-03-04T12:40:15.956Z,11.48
2019-03-04T12:41:15.957Z,11.62
2019-03-04T12:42:15.934Z,11.67
2019-03-04T12:43:15.948Z,11.70
2019-03-04T12:44:15.938Z,11.90
2019-03-04T12:45:15.900Z,12.04
2019-03-04T12:46:15.891Z,12.21
2019-03-04T12:47:16.517Z,12.19
2019-03-04T12:48:15.870Z,12.18
2019-03-04T12:49:15.873Z,12.38
2019-03-04T12:50:15.849Z,12.54
2019-03-04T12:51:22.657Z,12.79
2019-03-04T12:52:16.823Z,12.91
2019-03-04T12:53:15.824Z,12.94
2019-03-04T12:54:15.824Z,12.91
2019-03-04T12:55:15.811Z,13.12